createdAt,value
2022-10-02T00:02:24.346Z,7.88
2022-10-02T00:04:57.752Z,8.52
2022-10-02T00:08:03.816Z,9.75
2022-10-02T00:10:44.665Z,11.45
2022-10-02T00:13:23.507Z,10.95
2022-10-02T00:15:50.760Z,12.20
2022-10-02T00:18:23.685Z,11.45
2022-10-02T00:21:16.528Z,11.45
2022-10-02T00:23:56.898Z,10.68
2022-10-02T00:26:29.385Z,11.18
2022-10-02T00:29:25.074Z,10.73
2022-10-02T00:32:16.646Z,9.75
2022-10-02T00:34:59.569Z,9.63
2022-10-02T00:37:35.169Z,10.32
2022-10-02T00:40:31.839Z,10.63
2022-10-02T00:43:11.743Z,10.25
2022-10-02T00:45:58.497Z,9.73
2022-10-02T00:48:28.075Z,9.73
2022-10-02T00:51:06.714Z,8.50
2022-10-02T00:54:09.634Z,7.95
2022-10-02T00:56:54.626Z,7.95
2022-10-02T01:00:08.652Z,8.38
2022-10-02T01:02:43.770Z,8.00
2022-10-02T01:05:11.341Z,7.65
2022-10-02T01:07:43.374Z,6.63
2022-10-02T01:10:12.857Z,7.80
2022-10-02T01:12:40.207Z,7.05
2022-10-02T01:15:19.518Z,6.88
2022-10-02T01:17:49.823Z,5.93
2022-10-02T01:20:20.027Z,6.15
2022-10-02T01:22:58.042Z,6.15
2022-10-02T01:25:26.613Z,5.55
2022-10-02T01:27:54.511Z,6.32
2022-10-02T01:30:21.754Z,5.95
2022-10-02T01:32:59.674Z,5.20
2022-10-02T01:35:33.878Z,5.28
2022-10-02T01:38:03.894Z,5.30
2022-10-02T01:40:35.428Z,5.25
2022-10-02T01:43:06.756Z,5.13
2022-10-02T01:45:50.974Z,5.13
2022-10-02T01:48:25.330Z,4.97
2022-10-02T01:51:08.158Z,5.30
2022-10-02T01:54:07.043Z,5.40
2022-10-02T01:56:48.822Z,4.07
2022-10-02T01:59:22.825Z,5.03
2022-10-02T02:02:04.999Z,4.60
2022-10-02T02:04:52.401Z,4.80
2022-10-02T02:07:40.283Z,5.47
2022-10-02T02:10:14.011Z,4.78
2022-10-02T02:12:45.357Z,4.38
2022-10-02T02:15:31.050Z,4.75
2022-10-02T02:18:14.293Z,4.78
2022-10-02T02:20:47.064Z,4.68
2022-10-02T02:23:31.083Z,5.63
2022-10-02T02:26:07.128Z,4.53
2022-10-02T02:28:36.282Z,4.90
2022-10-02T02:31:05.140Z,5.40
2022-10-02T02:33:58.149Z,4.82
2022-10-02T02:36:32.242Z,4.35
2022-10-02T02:39:04.985Z,6.15
2022-10-02T02:41:40.844Z,4.47
2022-10-02T02:44:18.746Z,5.15
2022-10-02T02:47:04.966Z,5.28
2022-10-02T02:50:05.610Z,4.93
2022-10-02T02:52:55.790Z,5.22
2022-10-02T02:55:45.329Z,5.88
2022-10-02T02:58:30.451Z,4.68
2022-10-02T03:00:57.181Z,5.43
2022-10-02T03:03:23.772Z,5.22
2022-10-02T03:06:02.584Z,5.05
2022-10-02T03:08:34.430Z,5.07
2022-10-02T03:11:16.967Z,6.97
2022-10-02T03:14:08.809Z,5.05
2022-10-02T03:17:09.505Z,4.70
2022-10-02T03:19:56.839Z,6.18
2022-10-02T03:22:41.538Z,4.90
2022-10-02T03:25:14.441Z,5.15
2022-10-02T03:28:02.116Z,5.13
2022-10-02T03:30:30.414Z,7.13
2022-10-02T03:33:00.902Z,4.55
2022-10-02T03:35:29.006Z,4.38
2022-10-02T03:38:00.936Z,4.30
2022-10-02T03:40:27.463Z,5.30
2022-10-02T03:42:58.240Z,4.28
2022-10-02T03:45:46.592Z,4.30
2022-10-02T03:48:12.679Z,3.92
2022-10-02T03:50:39.207Z,3.75
2022-10-02T03:53:21.198Z,3.70
2022-10-02T03:56:06.526Z,3.55
2022-10-02T03:58:34.696Z,3.30
2022-10-02T04:01:25.105Z,3.17
2022-10-02T04:04:14.992Z,3.70
2022-10-02T04:06:48.738Z,3.78
2022-10-02T04:09:37.269Z,3.60
2022-10-02T04:12:11.978Z,3.22
2022-10-02T04:14:45.054Z,3.42
2022-10-02T04:17:35.159Z,3.15
2022-10-02T04:20:12.850Z,3.15
2022-10-02T04:23:03.137Z,3.70
2022-10-02T04:25:36.943Z,4.03
2022-10-02T04:28:07.820Z,3.75
2022-10-02T04:30:34.407Z,3.20
2022-10-02T04:33:17.684Z,3.50
2022-10-02T04:36:02.545Z,3.47
2022-10-02T04:38:54.409Z,3.30
2022-10-02T04:41:27.522Z,3.42
2022-10-02T04:44:08.411Z,3.65
2022-10-02T04:47:12.563Z,3.22
2022-10-02T04:49:59.790Z,3.65
2022-10-02T04:52:38.397Z,4.40
2022-10-02T04:55:14.210Z,3.70
2022-10-02T04:57:50.108Z,3.45
2022-10-02T05:00:20.726Z,3.75
2022-10-02T05:03:11.533Z,3.85
2022-10-02T05:05:47.189Z,4.07
2022-10-02T05:08:38.585Z,3.85
2022-10-02T05:11:10.499Z,3.90
2022-10-02T05:14:18.866Z,3.97
2022-10-02T05:16:51.031Z,4.55
2022-10-02T05:19:49.381Z,4.90
2022-10-02T05:22:51.303Z,4.85
2022-10-02T05:25:47.909Z,5.43
2022-10-02T05:28:32.544Z,5.32
2022-10-02T05:31:18.118Z,5.50
2022-10-02T05:34:14.935Z,6.03
2022-10-02T05:36:59.639Z,5.68
2022-10-02T05:39:36.631Z,6.50
2022-10-02T05:42:03.082Z,6.95
2022-10-02T05:44:42.252Z,7.72
2022-10-02T05:47:22.570Z,7.35
2022-10-02T05:49:56.130Z,6.57
2022-10-02T05:52:30.081Z,6.70
2022-10-02T05:55:03.789Z,7.60
2022-10-02T05:57:38.254Z,7.47
2022-10-02T06:00:24.051Z,7.23
2022-10-02T06:05:46.459Z,6.95
2022-10-02T06:08:18.151Z,6.68
2022-10-02T06:10:56.292Z,8.23
2022-10-02T06:13:30.053Z,8.02
2022-10-02T06:16:35.684Z,8.65
2022-10-02T06:19:29.158Z,9.15
2022-10-02T06:22:10.814Z,10.05
2022-10-02T06:24:55.335Z,10.35
2022-10-02T06:27:36.201Z,10.70
2022-10-02T06:30:05.898Z,12.43
2022-10-02T06:32:42.603Z,12.63
2022-10-02T06:35:15.555Z,11.35
2022-10-02T06:37:49.323Z,11.88
2022-10-02T06:40:19.352Z,11.88
2022-10-02T06:42:58.500Z,12.13
2022-10-02T06:45:53.393Z,12.27
2022-10-02T06:48:40.698Z,13.05
2022-10-02T06:51:29.325Z,12.32
2022-10-02T06:53:59.975Z,12.18
2022-10-02T06:56:52.822Z,12.23
2022-10-02T06:59:26.473Z,12.10
2022-10-02T07:02:00.166Z,12.20
2022-10-02T07:04:31.338Z,11.20
2022-10-02T07:07:03.210Z,11.23
2022-10-02T07:09:40.083Z,10.32
2022-10-02T07:12:22.073Z,10.50
2022-10-02T07:15:26.931Z,10.27
2022-10-02T07:18:00.513Z,9.43
2022-10-02T07:20:51.797Z,9.52
2022-10-02T07:24:02.401Z,8.90
2022-10-02T07:26:53.727Z,8.30
2022-10-02T07:29:33.117Z,7.88
2022-10-02T07:32:18.708Z,7.85
2022-10-02T07:35:22.729Z,8.30
2022-10-02T07:37:57.511Z,9.13
2022-10-02T07:40:37.526Z,7.97
2022-10-02T07:43:51.967Z,7.28
2022-10-02T07:46:59.190Z,7.15
2022-10-02T07:49:57.031Z,7.63
2022-10-02T07:52:40.546Z,8.85
2022-10-02T07:55:21.569Z,7.93
2022-10-02T07:57:57.145Z,8.77
2022-10-02T08:00:25.979Z,8.60
2022-10-02T08:03:15.730Z,10.73
2022-10-02T08:05:51.174Z,9.80
2022-10-02T08:08:25.289Z,8.93
2022-10-02T08:10:58.921Z,8.85
2022-10-02T08:13:32.832Z,8.40
2022-10-02T08:16:00.548Z,8.60
2022-10-02T08:18:35.912Z,7.60
2022-10-02T08:21:14.626Z,8.13
2022-10-02T08:23:42.856Z,9.27
2022-10-02T08:26:34.510Z,8.75
2022-10-02T08:29:16.041Z,9.30
2022-10-02T08:31:42.725Z,9.95
2022-10-02T08:34:25.327Z,8.93
2022-10-02T08:37:10.389Z,9.05
2022-10-02T08:40:14.209Z,9.30
2022-10-02T08:43:53.833Z,9.38
2022-10-02T08:46:39.328Z,8.80
2022-10-02T08:52:27.792Z,9.00
2022-10-02T08:55:31.351Z,10.02
2022-10-02T08:58:16.574Z,10.32
2022-10-02T09:00:55.670Z,8.65
2022-10-02T09:04:00.354Z,10.57
2022-10-02T09:06:45.349Z,10.18
2022-10-02T09:09:32.092Z,9.15
2022-10-02T09:12:08.948Z,7.57
2022-10-02T09:15:03.631Z,8.65
2022-10-02T09:17:46.362Z,7.40
2022-10-02T09:20:15.804Z,6.13
2022-10-02T09:23:01.330Z,6.05
2022-10-02T09:25:40.463Z,5.53
2022-10-02T09:28:25.605Z,5.78
2022-10-02T09:31:30.107Z,4.45
2022-10-02T09:34:02.877Z,4.93
2022-10-02T09:36:46.774Z,5.75
2022-10-02T09:39:51.662Z,5.65
2022-10-02T09:42:55.782Z,5.15
2022-10-02T09:45:36.383Z,4.47
2022-10-02T09:48:35.463Z,4.10
2022-10-02T09:51:44.024Z,3.72
2022-10-02T09:54:45.437Z,3.22
2022-10-02T09:57:56.444Z,3.10
2022-10-02T10:00:46.352Z,3.70
2022-10-02T10:03:36.460Z,3.67
2022-10-02T10:06:22.128Z,3.85
2022-10-02T10:12:14.032Z,3.08
2022-10-02T10:15:08.967Z,3.25
2022-10-02T10:17:59.498Z,3.42
2022-10-02T10:20:43.985Z,2.47
2022-10-02T10:23:35.946Z,3.20
2022-10-02T10:26:21.923Z,2.60
2022-10-02T10:29:07.558Z,2.67
2022-10-02T10:34:57.098Z,3.08
2022-10-02T10:38:04.009Z,2.65
2022-10-02T10:40:54.495Z,3.08
2022-10-02T10:43:44.455Z,2.92
2022-10-02T10:46:32.563Z,2.47
2022-10-02T10:49:17.318Z,2.65
2022-10-02T10:52:22.124Z,2.57
2022-10-02T10:54:55.784Z,2.50
2022-10-02T10:57:28.587Z,2.50
2022-10-02T11:00:11.793Z,2.70
2022-10-02T11:02:38.287Z,2.47
2022-10-02T11:05:35.879Z,2.45
2022-10-02T11:08:21.244Z,1.98
2022-10-02T11:11:00.699Z,2.60
2022-10-02T11:14:16.423Z,3.03
2022-10-02T11:17:01.469Z,2.63
2022-10-02T11:19:51.259Z,2.28
2022-10-02T11:22:50.855Z,2.40
2022-10-02T11:25:45.527Z,3.40
2022-10-02T11:28:33.383Z,2.38
2022-10-02T11:31:11.851Z,2.00
2022-10-02T11:34:20.363Z,2.15
2022-10-02T11:37:09.761Z,2.03
2022-10-02T11:39:36.270Z,2.20
2022-10-02T11:42:26.560Z,2.90
2022-10-02T11:45:05.242Z,2.30
2022-10-02T11:48:01.499Z,2.25
2022-10-02T11:50:45.155Z,2.63
2022-10-02T11:53:11.641Z,2.42
2022-10-02T11:55:58.351Z,2.33
2022-10-02T11:58:45.221Z,2.65
2022-10-02T12:01:34.004Z,2.40
2022-10-02T12:04:19.667Z,2.80
2022-10-02T12:07:05.811Z,2.50
2022-10-02T12:10:14.715Z,3.40
2022-10-02T12:12:51.495Z,2.58
2022-10-02T12:15:40.050Z,3.30
2022-10-02T12:18:31.703Z,2.55
2022-10-02T12:21:40.884Z,2.75
2022-10-02T12:25:01.826Z,2.55
2022-10-02T12:27:45.362Z,2.10
2022-10-02T12:30:18.941Z,2.28
2022-10-02T12:33:07.343Z,1.92
2022-10-02T12:35:42.977Z,2.25
2022-10-02T12:38:12.484Z,2.42
2022-10-02T12:41:10.019Z,2.58
2022-10-02T12:44:10.431Z,2.08
2022-10-02T12:47:05.001Z,2.00
2022-10-02T12:49:50.644Z,2.17
2022-10-02T12:55:11.122Z,2.05
2022-10-02T12:57:52.777Z,1.73
2022-10-02T13:00:22.229Z,2.03
2022-10-02T13:03:05.545Z,2.08
2022-10-02T13:06:10.762Z,1.85
2022-10-02T13:09:05.180Z,2.40
2022-10-02T13:12:02.693Z,2.45
2022-10-02T13:14:47.657Z,2.00
2022-10-02T13:17:27.126Z,2.20
2022-10-02T13:19:58.773Z,2.05
2022-10-02T13:22:46.843Z,2.35
2022-10-02T13:25:33.074Z,1.85
2022-10-02T13:28:24.114Z,2.30
2022-10-02T13:31:12.527Z,1.45
2022-10-02T13:33:56.846Z,1.80
2022-10-02T13:36:47.906Z,1.38
2022-10-02T13:39:20.216Z,1.88
2022-10-02T13:42:19.924Z,1.70
2022-10-02T13:45:24.062Z,1.25
2022-10-02T13:47:56.495Z,1.88
2022-10-02T13:51:06.578Z,1.50
2022-10-02T13:53:51.919Z,1.67
2022-10-02T13:56:34.376Z,1.85
2022-10-02T13:59:21.958Z,1.55
2022-10-02T14:02:12.833Z,1.70
2022-10-02T14:04:41.974Z,1.88
2022-10-02T14:07:08.374Z,1.55
2022-10-02T14:09:51.542Z,1.63
2022-10-02T14:12:48.464Z,1.70
2022-10-02T14:15:53.093Z,2.05
2022-10-02T14:18:35.345Z,1.95
2022-10-02T14:21:31.291Z,1.40
2022-10-02T14:24:11.737Z,1.50
2022-10-02T14:26:50.423Z,1.80
2022-10-02T14:29:35.789Z,1.63
2022-10-02T14:32:24.291Z,1.70
2022-10-02T14:35:03.298Z,1.83
2022-10-02T14:37:42.052Z,2.15
2022-10-02T14:40:14.276Z,1.92
2022-10-02T14:42:56.291Z,1.50
2022-10-02T14:46:03.107Z,1.98
2022-10-02T14:48:56.513Z,1.27
2022-10-02T14:51:58.067Z,1.48
2022-10-02T14:54:49.562Z,2.38
2022-10-02T14:57:47.358Z,1.50
2022-10-02T15:00:22.230Z,1.95
2022-10-02T15:03:11.001Z,1.67
2022-10-02T15:05:55.820Z,2.00
2022-10-02T15:08:31.421Z,1.05
2022-10-02T15:10:58.035Z,1.63
2022-10-02T15:13:33.962Z,1.85
2022-10-02T15:16:38.759Z,1.60
2022-10-02T15:19:31.128Z,1.70
2022-10-02T15:22:02.429Z,2.00
2022-10-02T15:24:43.538Z,1.75
2022-10-02T15:27:24.237Z,1.88
2022-10-02T15:29:56.608Z,1.40
2022-10-02T15:32:55.570Z,1.75
2022-10-02T15:36:00.298Z,2.17
2022-10-02T15:38:35.762Z,1.98
2022-10-02T15:41:26.403Z,1.73
2022-10-02T15:44:09.920Z,2.00
2022-10-02T15:46:42.405Z,1.80
2022-10-02T15:49:46.516Z,1.77
2022-10-02T15:52:38.754Z,1.73
2022-10-02T15:55:19.798Z,1.40
2022-10-02T15:57:57.417Z,1.42
2022-10-02T16:00:27.155Z,1.50
2022-10-02T16:03:01.405Z,1.35
2022-10-02T16:06:30.847Z,1.55
2022-10-02T16:09:28.114Z,2.10
2022-10-02T16:12:19.303Z,1.63
2022-10-02T16:14:57.722Z,1.85
2022-10-02T16:17:42.277Z,1.95
2022-10-02T16:20:18.372Z,1.75
2022-10-02T16:23:02.412Z,1.98
2022-10-02T16:25:58.302Z,1.88
2022-10-02T16:28:39.524Z,1.83
2022-10-02T16:31:22.530Z,2.17
2022-10-02T16:34:10.958Z,1.90
2022-10-02T16:36:53.994Z,1.80
2022-10-02T16:39:36.072Z,1.83
2022-10-02T16:42:16.302Z,2.15
2022-10-02T16:45:25.723Z,2.22
2022-10-02T16:48:02.032Z,2.75
2022-10-02T16:50:47.602Z,1.77
2022-10-02T16:53:29.523Z,1.98
2022-10-02T16:56:08.393Z,2.00
2022-10-02T16:59:08.294Z,2.67
2022-10-02T17:02:05.585Z,2.00
2022-10-02T17:05:04.426Z,2.10
2022-10-02T17:07:37.965Z,2.05
2022-10-02T17:10:19.229Z,3.30
2022-10-02T17:13:01.690Z,2.80
2022-10-02T17:15:38.928Z,2.03
2022-10-02T17:18:17.193Z,2.22
2022-10-02T17:20:48.471Z,1.88
2022-10-02T17:23:57.597Z,2.13
2022-10-02T17:26:40.784Z,2.15
2022-10-02T17:29:28.986Z,2.28
2022-10-02T17:32:01.281Z,2.50
2022-10-02T17:34:33.603Z,2.10
2022-10-02T17:37:09.002Z,1.92
2022-10-02T17:39:38.420Z,3.03
2022-10-02T17:42:30.316Z,2.15
2022-10-02T17:45:36.951Z,2.30
2022-10-02T17:48:15.420Z,2.05
2022-10-02T17:51:23.547Z,2.75
2022-10-02T17:54:31.383Z,2.15
2022-10-02T17:57:38.495Z,2.08
2022-10-02T18:00:21.143Z,2.70
2022-10-02T18:02:50.812Z,2.50
2022-10-02T18:05:21.578Z,2.58
2022-10-02T18:08:09.542Z,2.40
2022-10-02T18:10:54.602Z,2.20
2022-10-02T18:13:46.244Z,2.90
2022-10-02T18:16:37.308Z,2.17
2022-10-02T18:19:27.893Z,2.25
2022-10-02T18:22:22.477Z,3.13
2022-10-02T18:24:58.404Z,2.08
2022-10-02T18:27:58.785Z,2.03
2022-10-02T18:30:38.189Z,1.85
2022-10-02T18:33:30.326Z,2.13
2022-10-02T18:36:21.540Z,2.03
2022-10-02T18:39:37.317Z,2.33
2022-10-02T18:42:29.889Z,2.53
2022-10-02T18:45:08.598Z,2.40
2022-10-02T18:47:57.716Z,2.47
2022-10-02T18:50:50.953Z,2.55
2022-10-02T18:53:46.471Z,2.45
2022-10-02T18:56:19.847Z,3.17
2022-10-02T18:59:02.055Z,3.08
2022-10-02T19:01:57.691Z,2.33
2022-10-02T19:05:15.004Z,2.80
2022-10-02T19:07:52.302Z,3.95
2022-10-02T19:10:29.646Z,3.15
2022-10-02T19:13:01.268Z,2.83
2022-10-02T19:15:31.246Z,2.72
2022-10-02T19:18:03.136Z,2.22
2022-10-02T19:20:53.098Z,2.55
2022-10-02T19:23:30.622Z,2.80
2022-10-02T19:26:03.146Z,2.55
2022-10-02T19:28:31.547Z,2.45
2022-10-02T19:31:06.497Z,2.40
2022-10-02T19:33:53.978Z,2.85
2022-10-02T19:36:25.478Z,2.60
2022-10-02T19:38:57.029Z,2.88
2022-10-02T19:41:24.980Z,2.80
2022-10-02T19:44:02.996Z,3.50
2022-10-02T19:46:44.961Z,2.70
2022-10-02T19:49:24.676Z,2.53
2022-10-02T19:51:52.917Z,3.53
2022-10-02T19:54:30.095Z,2.70
2022-10-02T19:57:06.254Z,2.95
2022-10-02T19:59:42.641Z,2.38
2022-10-02T20:02:21.375Z,2.42
2022-10-02T20:04:51.399Z,2.30
2022-10-02T20:07:20.758Z,2.70
2022-10-02T20:09:54.483Z,3.25
2022-10-02T20:12:29.962Z,2.65
2022-10-02T20:15:18.675Z,2.58
2022-10-02T20:17:45.134Z,2.83
2022-10-02T20:20:16.499Z,2.85
2022-10-02T20:22:49.337Z,3.15
2022-10-02T20:25:29.152Z,2.65
2022-10-02T20:28:17.142Z,2.92
2022-10-02T20:31:00.907Z,2.63
2022-10-02T20:33:50.424Z,2.88
2022-10-02T20:36:22.545Z,2.63
2022-10-02T20:38:57.493Z,2.92
2022-10-02T20:41:29.052Z,3.65
2022-10-02T20:44:04.517Z,3.42
2022-10-02T20:46:35.871Z,3.67
2022-10-02T20:49:11.958Z,2.83
2022-10-02T20:52:35.456Z,4.25
2022-10-02T20:55:27.671Z,3.40
2022-10-02T20:58:12.466Z,3.30
2022-10-02T21:01:14.871Z,2.95
2022-10-02T21:07:05.860Z,3.28
2022-10-02T21:10:07.846Z,3.78
2022-10-02T21:12:34.807Z,4.22
2022-10-02T21:15:38.338Z,3.22
2022-10-02T21:18:23.270Z,3.72
2022-10-02T21:21:08.491Z,4.97
2022-10-02T21:24:17.379Z,3.25
2022-10-02T21:26:43.948Z,3.10
2022-10-02T21:29:36.966Z,3.95
2022-10-02T21:32:28.755Z,3.55
2022-10-02T21:34:58.232Z,4.13
2022-10-02T21:37:37.944Z,3.70
2022-10-02T21:40:27.072Z,3.88
2022-10-02T21:43:02.634Z,3.42
2022-10-02T21:45:47.705Z,4.05
2022-10-02T21:48:39.227Z,4.22
2022-10-02T21:51:27.583Z,3.85
2022-10-02T21:54:19.126Z,3.65
2022-10-02T21:57:40.008Z,4.03
2022-10-02T22:00:21.836Z,4.05
2022-10-02T22:03:24.758Z,3.88
2022-10-02T22:06:15.287Z,4.28
2022-10-02T22:09:26.917Z,4.57
2022-10-02T22:12:02.868Z,4.07
2022-10-02T22:14:36.427Z,3.80
2022-10-02T22:17:18.514Z,3.83
2022-10-02T22:20:27.973Z,4.63
2022-10-02T22:23:01.953Z,4.20
2022-10-02T22:25:58.802Z,5.07
2022-10-02T22:28:38.813Z,4.43
2022-10-02T22:31:29.701Z,4.63
2022-10-02T22:34:31.369Z,4.50
2022-10-02T22:37:29.938Z,4.25
2022-10-02T22:40:13.304Z,4.28
2022-10-02T22:42:44.923Z,4.90
2022-10-02T22:45:25.706Z,4.13
2022-10-02T22:47:55.957Z,3.83
2022-10-02T22:50:32.311Z,4.78
2022-10-02T22:53:17.010Z,4.53
2022-10-02T22:55:55.607Z,4.05
2022-10-02T22:58:44.372Z,4.55
2022-10-02T23:01:41.266Z,5.43
2022-10-02T23:04:39.344Z,4.00
2022-10-02T23:07:26.058Z,3.70
2022-10-02T23:09:58.626Z,4.03
2022-10-02T23:12:28.371Z,3.88
2022-10-02T23:15:02.730Z,3.75
2022-10-02T23:17:36.153Z,3.67
2022-10-02T23:20:16.905Z,3.42
2022-10-02T23:22:54.245Z,3.80
2022-10-02T23:25:53.201Z,3.97
2022-10-02T23:28:30.037Z,4.13
2022-10-02T23:31:34.136Z,3.92
2022-10-02T23:34:32.911Z,3.47
2022-10-02T23:37:18.923Z,3.90
2022-10-02T23:39:53.981Z,4.15
2022-10-02T23:42:27.822Z,3.88
2022-10-02T23:45:11.078Z,3.45
2022-10-02T23:47:57.420Z,3.53
2022-10-02T23:50:42.051Z,3.80
2022-10-02T23:53:30.363Z,3.75
2022-10-02T23:56:33.798Z,3.78
2022-10-02T23:59:18.701Z,4.10
